sensor_id;sensor_type;location;lat;lon;timestamp;P1;durP1;ratioP1;P2;durP2;ratioP2
4577;SDS011;2301;47.354;8.528;2022-09-25T00:01:34;2.13;;;1.90;;
4577;SDS011;2301;47.354;8.528;2022-09-25T00:04:01;5.40;;;2.57;;
4577;SDS011;2301;47.354;8.528;2022-09-25T00:06:29;8.43;;;2.60;;
4577;SDS011;2301;47.354;8.528;2022-09-25T00:08:57;4.70;;;2.53;;
4577;SDS011;2301;47.354;8.528;2022-09-25T00:11:28;6.20;;;2.57;;
4577;SDS011;2301;47.354;8.528;2022-09-25T00:13:57;3.83;;;2.30;;
4577;SDS011;2301;47.354;8.528;2022-09-25T00:16:26;5.67;;;2.70;;
4577;SDS011;2301;47.354;8.528;2022-09-25T00:18:54;3.83;;;2.27;;
4577;SDS011;2301;47.354;8.528;2022-09-25T00:21:39;2.80;;;2.40;;
4577;SDS011;2301;47.354;8.528;2022-09-25T00:24:08;2.43;;;2.23;;
4577;SDS011;2301;47.354;8.528;2022-09-25T00:26:39;5.10;;;2.90;;
4577;SDS011;2301;47.354;8.528;2022-09-25T00:29:07;3.87;;;2.17;;
4577;SDS011;2301;47.354;8.528;2022-09-25T00:31:38;4.93;;;2.17;;
4577;SDS011;2301;47.354;8.528;2022-09-25T00:34:05;3.30;;;2.33;;
4577;SDS011;2301;47.354;8.528;2022-09-25T00:36:32;2.90;;;2.27;;
4577;SDS011;2301;47.354;8.528;2022-09-25T00:39:00;6.87;;;2.63;;
4577;SDS011;2301;47.354;8.528;2022-09-25T00:41:27;4.67;;;2.87;;
4577;SDS011;2301;47.354;8.528;2022-09-25T00:43:57;5.77;;;2.47;;
4577;SDS011;2301;47.354;8.528;2022-09-25T00:46:26;2.47;;;2.27;;
4577;SDS011;2301;47.354;8.528;2022-09-25T00:48:57;4.90;;;2.50;;
4577;SDS011;2301;47.354;8.528;2022-09-25T00:51:27;2.40;;;2.20;;
4577;SDS011;2301;47.354;8.528;2022-09-25T00:54:00;5.37;;;2.00;;
4577;SDS011;2301;47.354;8.528;2022-09-25T00:56:32;5.40;;;2.43;;
4577;SDS011;2301;47.354;8.528;2022-09-25T00:59:04;3.77;;;2.40;;
4577;SDS011;2301;47.354;8.528;2022-09-25T01:01:35;2.30;;;2.10;;
4577;SDS011;2301;47.354;8.528;2022-09-25T01:04:02;4.50;;;2.00;;
4577;SDS011;2301;47.354;8.528;2022-09-25T01:06:29;3.97;;;2.33;;
4577;SDS011;2301;47.354;8.528;2022-09-25T01:08:57;3.07;;;2.77;;
4577;SDS011;2301;47.354;8.528;2022-09-25T01:11:25;3.00;;;2.80;;
4577;SDS011;2301;47.354;8.528;2022-09-25T01:13:53;5.23;;;3.30;;
4577;SDS011;2301;47.354;8.528;2022-09-25T01:16:25;10.43;;;3.50;;
4577;SDS011;2301;47.354;8.528;2022-09-25T01:19:02;7.23;;;3.80;;
4577;SDS011;2301;47.354;8.528;2022-09-25T01:21:41;4.57;;;3.60;;
4577;SDS011;2301;47.354;8.528;2022-09-25T01:27:30;7.17;;;4.60;;
4577;SDS011;2301;47.354;8.528;2022-09-25T01:30:10;6.67;;;5.00;;
4577;SDS011;2301;47.354;8.528;2022-09-25T01:32:50;8.73;;;6.47;;
4577;SDS011;2301;47.354;8.528;2022-09-25T01:35:24;8.50;;;6.60;;
4577;SDS011;2301;47.354;8.528;2022-09-25T01:37:58;10.83;;;8.23;;
4577;SDS011;2301;47.354;8.528;2022-09-25T01:40:32;10.30;;;8.10;;
4577;SDS011;2301;47.354;8.528;2022-09-25T01:43:06;11.20;;;8.10;;
4577;SDS011;2301;47.354;8.528;2022-09-25T01:45:40;12.63;;;8.00;;
4577;SDS011;2301;47.354;8.528;2022-09-25T01:48:12;11.63;;;8.37;;
4577;SDS011;2301;47.354;8.528;2022-09-25T01:50:43;16.53;;;8.90;;
4577;SDS011;2301;47.354;8.528;2022-09-25T01:53:14;9.33;;;7.40;;
4577;SDS011;2301;47.354;8.528;2022-09-25T01:55:45;14.80;;;10.13;;
4577;SDS011;2301;47.354;8.528;2022-09-25T01:58:16;12.13;;;8.30;;
4577;SDS011;2301;47.354;8.528;2022-09-25T02:00:48;9.93;;;8.50;;
4577;SDS011;2301;47.354;8.528;2022-09-25T02:03:20;12.87;;;9.00;;
4577;SDS011;2301;47.354;8.528;2022-09-25T02:05:52;13.40;;;10.40;;
4577;SDS011;2301;47.354;8.528;2022-09-25T02:08:23;12.60;;;8.13;;
4577;SDS011;2301;47.354;8.528;2022-09-25T02:10:54;11.90;;;9.30;;
4577;SDS011;2301;47.354;8.528;2022-09-25T02:13:27;12.10;;;9.30;;
4577;SDS011;2301;47.354;8.528;2022-09-25T02:16:03;10.60;;;8.73;;
4577;SDS011;2301;47.354;8.528;2022-09-25T02:18:34;13.17;;;8.13;;
4577;SDS011;2301;47.354;8.528;2022-09-25T02:21:20;15.03;;;9.93;;
4577;SDS011;2301;47.354;8.528;2022-09-25T02:23:55;16.10;;;10.20;;
4577;SDS011;2301;47.354;8.528;2022-09-25T02:26:28;11.53;;;8.37;;
4577;SDS011;2301;47.354;8.528;2022-09-25T02:28:57;12.80;;;9.87;;
4577;SDS011;2301;47.354;8.528;2022-09-25T02:31:27;11.87;;;9.13;;
4577;SDS011;2301;47.354;8.528;2022-09-25T02:33:56;12.73;;;9.57;;
4577;SDS011;2301;47.354;8.528;2022-09-25T02:36:23;14.63;;;9.73;;
4577;SDS011;2301;47.354;8.528;2022-09-25T02:38:50;10.40;;;8.47;;
4577;SDS011;2301;47.354;8.528;2022-09-25T02:41:23;13.63;;;10.03;;
4577;SDS011;2301;47.354;8.528;2022-09-25T02:44:02;11.13;;;8.23;;
4577;SDS011;2301;47.354;8.528;2022-09-25T02:46:41;12.53;;;8.27;;
4577;SDS011;2301;47.354;8.528;2022-09-25T02:49:15;13.57;;;9.67;;
4577;SDS011;2301;47.354;8.528;2022-09-25T02:51:52;12.77;;;7.53;;
4577;SDS011;2301;47.354;8.528;2022-09-25T02:54:23;11.90;;;9.00;;
4577;SDS011;2301;47.354;8.528;2022-09-25T02:56:58;10.77;;;8.07;;
4577;SDS011;2301;47.354;8.528;2022-09-25T02:59:32;11.13;;;9.23;;
4577;SDS011;2301;47.354;8.528;2022-09-25T03:02:04;14.13;;;8.00;;
4577;SDS011;2301;47.354;8.528;2022-09-25T03:04:32;15.20;;;9.73;;
4577;SDS011;2301;47.354;8.528;2022-09-25T03:07:02;12.13;;;9.40;;
4577;SDS011;2301;47.354;8.528;2022-09-25T03:09:30;12.83;;;9.53;;
4577;SDS011;2301;47.354;8.528;2022-09-25T03:12:01;17.67;;;10.50;;
4577;SDS011;2301;47.354;8.528;2022-09-25T03:14:29;11.37;;;8.47;;
4577;SDS011;2301;47.354;8.528;2022-09-25T03:16:56;12.73;;;9.43;;
4577;SDS011;2301;47.354;8.528;2022-09-25T03:19:27;11.97;;;9.03;;
4577;SDS011;2301;47.354;8.528;2022-09-25T03:21:55;13.40;;;8.50;;
4577;SDS011;2301;47.354;8.528;2022-09-25T03:24:22;9.53;;;8.30;;
4577;SDS011;2301;47.354;8.528;2022-09-25T03:26:49;9.60;;;7.80;;
4577;SDS011;2301;47.354;8.528;2022-09-25T03:29:18;11.10;;;8.13;;
4577;SDS011;2301;47.354;8.528;2022-09-25T03:31:46;10.33;;;7.10;;
4577;SDS011;2301;47.354;8.528;2022-09-25T03:34:14;10.27;;;7.83;;
4577;SDS011;2301;47.354;8.528;2022-09-25T03:36:44;13.20;;;7.70;;
4577;SDS011;2301;47.354;8.528;2022-09-25T03:39:11;10.20;;;6.83;;
4577;SDS011;2301;47.354;8.528;2022-09-25T03:41:41;7.70;;;6.90;;
4577;SDS011;2301;47.354;8.528;2022-09-25T03:44:09;12.10;;;7.73;;
4577;SDS011;2301;47.354;8.528;2022-09-25T03:46:36;16.90;;;7.60;;
4577;SDS011;2301;47.354;8.528;2022-09-25T03:49:03;8.50;;;7.03;;
4577;SDS011;2301;47.354;8.528;2022-09-25T03:51:30;12.37;;;6.23;;
4577;SDS011;2301;47.354;8.528;2022-09-25T03:53:59;8.80;;;6.00;;
4577;SDS011;2301;47.354;8.528;2022-09-25T03:56:28;10.13;;;6.80;;
4577;SDS011;2301;47.354;8.528;2022-09-25T03:58:57;7.97;;;6.17;;
4577;SDS011;2301;47.354;8.528;2022-09-25T04:01:24;9.50;;;6.87;;
4577;SDS011;2301;47.354;8.528;2022-09-25T04:03:53;8.73;;;7.20;;
4577;SDS011;2301;47.354;8.528;2022-09-25T04:06:21;13.00;;;7.67;;
4577;SDS011;2301;47.354;8.528;2022-09-25T04:08:49;9.33;;;6.37;;
4577;SDS011;2301;47.354;8.528;2022-09-25T04:11:18;11.20;;;8.00;;
4577;SDS011;2301;47.354;8.528;2022-09-25T04:13:46;7.00;;;6.20;;
4577;SDS011;2301;47.354;8.528;2022-09-25T04:16:14;10.63;;;7.50;;
4577;SDS011;2301;47.354;8.528;2022-09-25T04:18:41;10.83;;;7.50;;
4577;SDS011;2301;47.354;8.528;2022-09-25T04:21:09;11.23;;;7.73;;
4577;SDS011;2301;47.354;8.528;2022-09-25T04:23:38;12.73;;;7.50;;
4577;SDS011;2301;47.354;8.528;2022-09-25T04:26:05;8.00;;;6.00;;
4577;SDS011;2301;47.354;8.528;2022-09-25T04:28:34;12.97;;;6.13;;
4577;SDS011;2301;47.354;8.528;2022-09-25T04:31:01;14.20;;;8.60;;
4577;SDS011;2301;47.354;8.528;2022-09-25T04:33:29;11.53;;;7.60;;
4577;SDS011;2301;47.354;8.528;2022-09-25T04:36:13;11.10;;;7.63;;
4577;SDS011;2301;47.354;8.528;2022-09-25T04:38:40;14.70;;;9.50;;
4577;SDS011;2301;47.354;8.528;2022-09-25T04:41:08;13.27;;;8.33;;
4577;SDS011;2301;47.354;8.528;2022-09-25T04:43:37;13.20;;;7.97;;
4577;SDS011;2301;47.354;8.528;2022-09-25T04:46:05;7.53;;;6.23;;
4577;SDS011;2301;47.354;8.528;2022-09-25T04:48:34;15.00;;;6.87;;
4577;SDS011;2301;47.354;8.528;2022-09-25T04:51:01;7.90;;;6.60;;
4577;SDS011;2301;47.354;8.528;2022-09-25T04:53:28;15.37;;;7.40;;
4577;SDS011;2301;47.354;8.528;2022-09-25T04:56:00;11.17;;;8.53;;
4577;SDS011;2301;47.354;8.528;2022-09-25T04:58:29;10.07;;;7.60;;
4577;SDS011;2301;47.354;8.528;2022-09-25T05:01:01;9.20;;;7.47;;
4577;SDS011;2301;47.354;8.528;2022-09-25T05:03:28;9.30;;;6.77;;
4577;SDS011;2301;47.354;8.528;2022-09-25T05:05:55;9.57;;;8.23;;
4577;SDS011;2301;47.354;8.528;2022-09-25T05:08:23;8.23;;;6.90;;
4577;SDS011;2301;47.354;8.528;2022-09-25T05:10:50;11.63;;;8.70;;
4577;SDS011;2301;47.354;8.528;2022-09-25T05:13:17;8.90;;;7.20;;
4577;SDS011;2301;47.354;8.528;2022-09-25T05:15:44;11.10;;;7.03;;
4577;SDS011;2301;47.354;8.528;2022-09-25T05:18:14;17.73;;;7.40;;
4577;SDS011;2301;47.354;8.528;2022-09-25T05:20:42;13.50;;;9.50;;
4577;SDS011;2301;47.354;8.528;2022-09-25T05:23:09;13.43;;;8.83;;
4577;SDS011;2301;47.354;8.528;2022-09-25T05:25:36;21.10;;;9.17;;
4577;SDS011;2301;47.354;8.528;2022-09-25T05:28:03;13.93;;;9.23;;
4577;SDS011;2301;47.354;8.528;2022-09-25T05:30:30;17.70;;;12.03;;
4577;SDS011;2301;47.354;8.528;2022-09-25T05:32:58;11.17;;;8.43;;
4577;SDS011;2301;47.354;8.528;2022-09-25T05:35:27;18.17;;;10.30;;
4577;SDS011;2301;47.354;8.528;2022-09-25T05:37:55;15.83;;;11.27;;
4577;SDS011;2301;47.354;8.528;2022-09-25T05:40:22;15.57;;;12.03;;
4577;SDS011;2301;47.354;8.528;2022-09-25T05:42:49;17.77;;;13.63;;
4577;SDS011;2301;47.354;8.528;2022-09-25T05:45:17;12.37;;;9.07;;
4577;SDS011;2301;47.354;8.528;2022-09-25T05:47:45;19.27;;;10.20;;
4577;SDS011;2301;47.354;8.528;2022-09-25T05:50:13;22.73;;;9.90;;
4577;SDS011;2301;47.354;8.528;2022-09-25T05:52:43;16.73;;;10.30;;
4577;SDS011;2301;47.354;8.528;2022-09-25T05:55:10;18.30;;;10.23;;
4577;SDS011;2301;47.354;8.528;2022-09-25T05:57:37;10.67;;;8.50;;
4577;SDS011;2301;47.354;8.528;2022-09-25T06:00:05;10.87;;;8.30;;
4577;SDS011;2301;47.354;8.528;2022-09-25T06:02:34;9.80;;;7.93;;
4577;SDS011;2301;47.354;8.528;2022-09-25T06:05:01;19.17;;;8.27;;
4577;SDS011;2301;47.354;8.528;2022-09-25T06:07:28;11.10;;;8.67;;
4577;SDS011;2301;47.354;8.528;2022-09-25T06:09:56;12.43;;;9.90;;
4577;SDS011;2301;47.354;8.528;2022-09-25T06:12:23;9.23;;;7.70;;
4577;SDS011;2301;47.354;8.528;2022-09-25T06:14:50;8.93;;;7.40;;
4577;SDS011;2301;47.354;8.528;2022-09-25T06:17:17;11.40;;;8.77;;
4577;SDS011;2301;47.354;8.528;2022-09-25T06:19:44;14.70;;;8.13;;
4577;SDS011;2301;47.354;8.528;2022-09-25T06:22:12;10.97;;;9.00;;
4577;SDS011;2301;47.354;8.528;2022-09-25T06:24:38;12.93;;;8.67;;
4577;SDS011;2301;47.354;8.528;2022-09-25T06:27:07;12.27;;;9.10;;
4577;SDS011;2301;47.354;8.528;2022-09-25T06:29:34;8.83;;;7.00;;
4577;SDS011;2301;47.354;8.528;2022-09-25T06:32:01;10.87;;;7.00;;
4577;SDS011;2301;47.354;8.528;2022-09-25T06:34:28;13.20;;;7.50;;
4577;SDS011;2301;47.354;8.528;2022-09-25T06:36:55;9.73;;;7.77;;
4577;SDS011;2301;47.354;8.528;2022-09-25T06:39:22;9.23;;;6.97;;
4577;SDS011;2301;47.354;8.528;2022-09-25T06:41:50;8.63;;;7.47;;
4577;SDS011;2301;47.354;8.528;2022-09-25T06:44:19;15.70;;;11.90;;
4577;SDS011;2301;47.354;8.528;2022-09-25T06:46:47;17.03;;;12.43;;
4577;SDS011;2301;47.354;8.528;2022-09-25T06:49:15;18.30;;;13.83;;
4577;SDS011;2301;47.354;8.528;2022-09-25T06:51:41;17.23;;;12.97;;
4577;SDS011;2301;47.354;8.528;2022-09-25T06:54:08;18.10;;;12.10;;
4577;SDS011;2301;47.354;8.528;2022-09-25T06:56:35;24.03;;;11.87;;
4577;SDS011;2301;47.354;8.528;2022-09-25T06:59:02;14.10;;;11.10;;
4577;SDS011;2301;47.354;8.528;2022-09-25T07:01:31;14.50;;;11.27;;
4577;SDS011;2301;47.354;8.528;2022-09-25T07:03:58;13.80;;;10.53;;
4577;SDS011;2301;47.354;8.528;2022-09-25T07:06:26;13.40;;;11.23;;
4577;SDS011;2301;47.354;8.528;2022-09-25T07:08:55;12.50;;;10.40;;
4577;SDS011;2301;47.354;8.528;2022-09-25T07:11:23;14.97;;;10.80;;
4577;SDS011;2301;47.354;8.528;2022-09-25T07:13:52;13.00;;;10.33;;
4577;SDS011;2301;47.354;8.528;2022-09-25T07:16:20;12.73;;;10.03;;
4577;SDS011;2301;47.354;8.528;2022-09-25T07:18:51;15.17;;;10.73;;
4577;SDS011;2301;47.354;8.528;2022-09-25T07:21:19;13.27;;;10.57;;
4577;SDS011;2301;47.354;8.528;2022-09-25T07:23:48;13.30;;;10.67;;
4577;SDS011;2301;47.354;8.528;2022-09-25T07:26:17;12.77;;;10.83;;
4577;SDS011;2301;47.354;8.528;2022-09-25T07:28:46;11.13;;;9.87;;
4577;SDS011;2301;47.354;8.528;2022-09-25T07:31:15;11.53;;;9.80;;
4577;SDS011;2301;47.354;8.528;2022-09-25T07:33:43;14.50;;;10.43;;
4577;SDS011;2301;47.354;8.528;2022-09-25T07:36:12;11.90;;;9.30;;
4577;SDS011;2301;47.354;8.528;2022-09-25T07:38:40;12.23;;;9.90;;
4577;SDS011;2301;47.354;8.528;2022-09-25T07:41:10;10.23;;;8.60;;
4577;SDS011;2301;47.354;8.528;2022-09-25T07:43:37;19.90;;;9.00;;
4577;SDS011;2301;47.354;8.528;2022-09-25T07:46:07;14.03;;;10.10;;
4577;SDS011;2301;47.354;8.528;2022-09-25T07:48:34;11.80;;;8.60;;
4577;SDS011;2301;47.354;8.528;2022-09-25T07:51:01;9.70;;;8.17;;
4577;SDS011;2301;47.354;8.528;2022-09-25T07:53:30;10.07;;;8.77;;
4577;SDS011;2301;47.354;8.528;2022-09-25T07:55:57;13.80;;;9.50;;
4577;SDS011;2301;47.354;8.528;2022-09-25T07:58:25;12.03;;;9.60;;
4577;SDS011;2301;47.354;8.528;2022-09-25T08:00:53;11.80;;;9.70;;
4577;SDS011;2301;47.354;8.528;2022-09-25T08:03:24;17.80;;;10.00;;
4577;SDS011;2301;47.354;8.528;2022-09-25T08:05:55;12.57;;;9.77;;
4577;SDS011;2301;47.354;8.528;2022-09-25T08:08:23;12.67;;;9.93;;
4577;SDS011;2301;47.354;8.528;2022-09-25T08:10:53;14.70;;;10.73;;
4577;SDS011;2301;47.354;8.528;2022-09-25T08:13:25;12.70;;;9.30;;
4577;SDS011;2301;47.354;8.528;2022-09-25T08:15:52;11.17;;;9.13;;
4577;SDS011;2301;47.354;8.528;2022-09-25T08:18:20;13.83;;;9.73;;
4577;SDS011;2301;47.354;8.528;2022-09-25T08:20:47;11.40;;;9.63;;
4577;SDS011;2301;47.354;8.528;2022-09-25T08:23:14;11.97;;;10.27;;
4577;SDS011;2301;47.354;8.528;2022-09-25T08:25:41;17.13;;;11.00;;
4577;SDS011;2301;47.354;8.528;2022-09-25T08:28:09;10.40;;;8.70;;
4577;SDS011;2301;47.354;8.528;2022-09-25T08:30:36;11.57;;;9.80;;
4577;SDS011;2301;47.354;8.528;2022-09-25T08:33:03;12.47;;;10.10;;
4577;SDS011;2301;47.354;8.528;2022-09-25T08:35:36;12.30;;;9.03;;
4577;SDS011;2301;47.354;8.528;2022-09-25T08:38:03;14.10;;;10.70;;
4577;SDS011;2301;47.354;8.528;2022-09-25T08:40:30;12.97;;;8.93;;
4577;SDS011;2301;47.354;8.528;2022-09-25T08:42:59;12.50;;;9.53;;
4577;SDS011;2301;47.354;8.528;2022-09-25T08:45:28;11.77;;;9.30;;
4577;SDS011;2301;47.354;8.528;2022-09-25T08:48:18;11.90;;;8.50;;
4577;SDS011;2301;47.354;8.528;2022-09-25T08:51:05;15.07;;;9.20;;
4577;SDS011;2301;47.354;8.528;2022-09-25T08:53:34;14.97;;;10.50;;
4577;SDS011;2301;47.354;8.528;2022-09-25T08:56:02;13.90;;;10.87;;
4577;SDS011;2301;47.354;8.528;2022-09-25T08:58:51;14.23;;;10.47;;
4577;SDS011;2301;47.354;8.528;2022-09-25T09:01:27;12.43;;;9.00;;
4577;SDS011;2301;47.354;8.528;2022-09-25T09:04:05;12.77;;;10.07;;
4577;SDS011;2301;47.354;8.528;2022-09-25T09:06:37;10.20;;;9.10;;
4577;SDS011;2301;47.354;8.528;2022-09-25T09:09:10;12.23;;;9.20;;
4577;SDS011;2301;47.354;8.528;2022-09-25T09:11:40;11.60;;;9.20;;
4577;SDS011;2301;47.354;8.528;2022-09-25T09:14:13;12.67;;;8.50;;
4577;SDS011;2301;47.354;8.528;2022-09-25T09:16:44;11.80;;;8.23;;
4577;SDS011;2301;47.354;8.528;2022-09-25T09:19:15;11.53;;;9.37;;
4577;SDS011;2301;47.354;8.528;2022-09-25T09:21:44;11.37;;;8.63;;
4577;SDS011;2301;47.354;8.528;2022-09-25T09:24:14;12.53;;;8.70;;
4577;SDS011;2301;47.354;8.528;2022-09-25T09:29:49;12.07;;;8.70;;
4577;SDS011;2301;47.354;8.528;2022-09-25T09:35:23;12.23;;;8.87;;
4577;SDS011;2301;47.354;8.528;2022-09-25T09:37:59;12.10;;;9.27;;
4577;SDS011;2301;47.354;8.528;2022-09-25T09:40:40;9.47;;;8.17;;
4577;SDS011;2301;47.354;8.528;2022-09-25T09:43:29;14.00;;;9.97;;
4577;SDS011;2301;47.354;8.528;2022-09-25T09:46:19;11.37;;;9.07;;
4577;SDS011;2301;47.354;8.528;2022-09-25T09:48:56;13.23;;;9.30;;
4577;SDS011;2301;47.354;8.528;2022-09-25T09:51:31;11.87;;;8.43;;
4577;SDS011;2301;47.354;8.528;2022-09-25T09:54:04;11.53;;;8.83;;
4577;SDS011;2301;47.354;8.528;2022-09-25T09:56:35;12.47;;;8.40;;
4577;SDS011;2301;47.354;8.528;2022-09-25T09:59:03;11.73;;;9.10;;
4577;SDS011;2301;47.354;8.528;2022-09-25T10:01:33;11.20;;;8.60;;
4577;SDS011;2301;47.354;8.528;2022-09-25T10:04:04;12.80;;;8.20;;
4577;SDS011;2301;47.354;8.528;2022-09-25T10:06:36;9.53;;;7.83;;
4577;SDS011;2301;47.354;8.528;2022-09-25T10:09:07;8.83;;;6.57;;
4577;SDS011;2301;47.354;8.528;2022-09-25T10:11:38;9.30;;;6.97;;
4577;SDS011;2301;47.354;8.528;2022-09-25T10:14:10;7.00;;;5.77;;
4577;SDS011;2301;47.354;8.528;2022-09-25T10:16:42;8.00;;;6.40;;
4577;SDS011;2301;47.354;8.528;2022-09-25T10:19:12;6.37;;;4.90;;
4577;SDS011;2301;47.354;8.528;2022-09-25T10:21:45;6.40;;;4.80;;
4577;SDS011;2301;47.354;8.528;2022-09-25T10:27:20;5.20;;;4.50;;
4577;SDS011;2301;47.354;8.528;2022-09-25T10:29:59;7.30;;;5.47;;
4577;SDS011;2301;47.354;8.528;2022-09-25T10:32:32;6.50;;;4.20;;
4577;SDS011;2301;47.354;8.528;2022-09-25T10:35:13;5.90;;;5.00;;
4577;SDS011;2301;47.354;8.528;2022-09-25T10:37:41;4.77;;;3.60;;
4577;SDS011;2301;47.354;8.528;2022-09-25T10:40:20;4.30;;;3.73;;
4577;SDS011;2301;47.354;8.528;2022-09-25T10:43:00;4.30;;;3.53;;
4577;SDS011;2301;47.354;8.528;2022-09-25T10:45:30;5.27;;;3.93;;
4577;SDS011;2301;47.354;8.528;2022-09-25T10:47:58;6.00;;;4.00;;
4577;SDS011;2301;47.354;8.528;2022-09-25T10:50:43;4.20;;;3.50;;
4577;SDS011;2301;47.354;8.528;2022-09-25T10:53:22;5.23;;;3.83;;
4577;SDS011;2301;47.354;8.528;2022-09-25T10:55:55;5.37;;;3.97;;
4577;SDS011;2301;47.354;8.528;2022-09-25T10:58:28;4.00;;;3.60;;
4577;SDS011;2301;47.354;8.528;2022-09-25T11:01:00;3.37;;;2.73;;
4577;SDS011;2301;47.354;8.528;2022-09-25T11:03:29;5.63;;;4.67;;
4577;SDS011;2301;47.354;8.528;2022-09-25T11:05:59;6.00;;;4.33;;
4577;SDS011;2301;47.354;8.528;2022-09-25T11:08:32;7.17;;;4.77;;
4577;SDS011;2301;47.354;8.528;2022-09-25T11:11:02;5.70;;;4.80;;
4577;SDS011;2301;47.354;8.528;2022-09-25T11:13:32;5.27;;;4.23;;
4577;SDS011;2301;47.354;8.528;2022-09-25T11:16:08;5.93;;;4.60;;
4577;SDS011;2301;47.354;8.528;2022-09-25T11:18:37;4.57;;;4.10;;
4577;SDS011;2301;47.354;8.528;2022-09-25T11:21:16;6.20;;;4.70;;
4577;SDS011;2301;47.354;8.528;2022-09-25T11:23:52;4.80;;;4.30;;
4577;SDS011;2301;47.354;8.528;2022-09-25T11:26:29;6.10;;;5.10;;
4577;SDS011;2301;47.354;8.528;2022-09-25T11:29:02;5.40;;;4.20;;
4577;SDS011;2301;47.354;8.528;2022-09-25T11:31:38;7.17;;;4.97;;
4577;SDS011;2301;47.354;8.528;2022-09-25T11:34:12;7.80;;;6.40;;
4577;SDS011;2301;47.354;8.528;2022-09-25T11:36:46;5.17;;;4.67;;
4577;SDS011;2301;47.354;8.528;2022-09-25T11:39:19;8.57;;;6.27;;
4577;SDS011;2301;47.354;8.528;2022-09-25T11:42:08;9.37;;;6.90;;
4577;SDS011;2301;47.354;8.528;2022-09-25T11:44:43;6.87;;;5.50;;
4577;SDS011;2301;47.354;8.528;2022-09-25T11:47:19;7.47;;;5.57;;
4577;SDS011;2301;47.354;8.528;2022-09-25T11:49:50;6.77;;;5.30;;
4577;SDS011;2301;47.354;8.528;2022-09-25T11:52:23;7.80;;;5.93;;
4577;SDS011;2301;47.354;8.528;2022-09-25T11:58:05;7.30;;;5.30;;
4577;SDS011;2301;47.354;8.528;2022-09-25T12:00:44;5.93;;;5.20;;
4577;SDS011;2301;47.354;8.528;2022-09-25T12:06:20;9.53;;;6.13;;
4577;SDS011;2301;47.354;8.528;2022-09-25T12:09:15;8.43;;;5.37;;
4577;SDS011;2301;47.354;8.528;2022-09-25T12:11:54;6.00;;;5.40;;
4577;SDS011;2301;47.354;8.528;2022-09-25T12:14:29;5.80;;;5.20;;
4577;SDS011;2301;47.354;8.528;2022-09-25T12:17:04;7.97;;;5.00;;
4577;SDS011;2301;47.354;8.528;2022-09-25T12:19:40;8.37;;;5.07;;
4577;SDS011;2301;47.354;8.528;2022-09-25T12:22:17;5.30;;;4.80;;
4577;SDS011;2301;47.354;8.528;2022-09-25T12:24:54;11.50;;;5.87;;
4577;SDS011;2301;47.354;8.528;2022-09-25T12:27:38;9.27;;;5.60;;
4577;SDS011;2301;47.354;8.528;2022-09-25T12:30:16;8.20;;;5.63;;
4577;SDS011;2301;47.354;8.528;2022-09-25T12:32:55;5.60;;;5.03;;
4577;SDS011;2301;47.354;8.528;2022-09-25T12:35:34;7.63;;;5.40;;
4577;SDS011;2301;47.354;8.528;2022-09-25T12:38:08;7.10;;;6.20;;
4577;SDS011;2301;47.354;8.528;2022-09-25T12:40:46;7.83;;;5.13;;
4577;SDS011;2301;47.354;8.528;2022-09-25T12:43:17;8.03;;;5.80;;
4577;SDS011;2301;47.354;8.528;2022-09-25T12:45:50;6.00;;;4.87;;
4577;SDS011;2301;47.354;8.528;2022-09-25T12:48:22;8.37;;;5.67;;
4577;SDS011;2301;47.354;8.528;2022-09-25T12:50:54;8.77;;;5.80;;
4577;SDS011;2301;47.354;8.528;2022-09-25T12:53:28;7.00;;;5.67;;
4577;SDS011;2301;47.354;8.528;2022-09-25T12:56:01;8.30;;;6.67;;
4577;SDS011;2301;47.354;8.528;2022-09-25T13:01:26;7.83;;;4.73;;
4577;SDS011;2301;47.354;8.528;2022-09-25T13:04:01;5.30;;;4.80;;
4577;SDS011;2301;47.354;8.528;2022-09-25T13:06:48;4.77;;;4.20;;
4577;SDS011;2301;47.354;8.528;2022-09-25T13:09:23;6.00;;;2.77;;
4577;SDS011;2301;47.354;8.528;2022-09-25T13:11:59;4.93;;;2.80;;
4577;SDS011;2301;47.354;8.528;2022-09-25T13:14:31;2.77;;;2.57;;
4577;SDS011;2301;47.354;8.528;2022-09-25T13:17:03;3.10;;;2.70;;
4577;SDS011;2301;47.354;8.528;2022-09-25T13:19:34;3.30;;;2.30;;
4577;SDS011;2301;47.354;8.528;2022-09-25T13:22:02;2.43;;;2.00;;
4577;SDS011;2301;47.354;8.528;2022-09-25T13:24:36;5.17;;;2.80;;
4577;SDS011;2301;47.354;8.528;2022-09-25T13:27:08;2.07;;;1.90;;
4577;SDS011;2301;47.354;8.528;2022-09-25T13:29:39;3.13;;;2.27;;
4577;SDS011;2301;47.354;8.528;2022-09-25T13:32:11;3.33;;;2.30;;
4577;SDS011;2301;47.354;8.528;2022-09-25T13:34:41;4.27;;;2.00;;
4577;SDS011;2301;47.354;8.528;2022-09-25T13:37:09;1.90;;;1.70;;
4577;SDS011;2301;47.354;8.528;2022-09-25T13:39:37;2.40;;;2.20;;
4577;SDS011;2301;47.354;8.528;2022-09-25T13:42:26;3.07;;;2.23;;
4577;SDS011;2301;47.354;8.528;2022-09-25T13:44:57;2.27;;;1.73;;
4577;SDS011;2301;47.354;8.528;2022-09-25T13:50:30;1.87;;;1.77;;
4577;SDS011;2301;47.354;8.528;2022-09-25T13:59:00;1.80;;;1.70;;
4577;SDS011;2301;47.354;8.528;2022-09-25T14:01:56;2.13;;;1.93;;
4577;SDS011;2301;47.354;8.528;2022-09-25T14:04:29;1.93;;;1.70;;
4577;SDS011;2301;47.354;8.528;2022-09-25T14:07:06;3.30;;;2.37;;
4577;SDS011;2301;47.354;8.528;2022-09-25T14:09:42;4.93;;;2.10;;
4577;SDS011;2301;47.354;8.528;2022-09-25T14:12:18;3.37;;;2.43;;
4577;SDS011;2301;47.354;8.528;2022-09-25T14:15:03;2.53;;;1.93;;
4577;SDS011;2301;47.354;8.528;2022-09-25T14:17:33;2.27;;;1.97;;
4577;SDS011;2301;47.354;8.528;2022-09-25T14:20:03;3.40;;;2.13;;
4577;SDS011;2301;47.354;8.528;2022-09-25T14:22:36;2.70;;;2.27;;
4577;SDS011;2301;47.354;8.528;2022-09-25T14:25:24;3.43;;;2.33;;
4577;SDS011;2301;47.354;8.528;2022-09-25T14:27:57;5.63;;;2.87;;
4577;SDS011;2301;47.354;8.528;2022-09-25T14:30:25;2.40;;;2.20;;
4577;SDS011;2301;47.354;8.528;2022-09-25T14:35:56;6.43;;;2.40;;
4577;SDS011;2301;47.354;8.528;2022-09-25T14:38:36;3.20;;;2.30;;
4577;SDS011;2301;47.354;8.528;2022-09-25T14:47:22;2.97;;;2.00;;
4577;SDS011;2301;47.354;8.528;2022-09-25T14:50:00;3.40;;;2.87;;
4577;SDS011;2301;47.354;8.528;2022-09-25T14:52:28;2.20;;;2.10;;
4577;SDS011;2301;47.354;8.528;2022-09-25T14:54:58;2.07;;;1.97;;
4577;SDS011;2301;47.354;8.528;2022-09-25T14:57:28;2.20;;;2.00;;
4577;SDS011;2301;47.354;8.528;2022-09-25T14:59:58;4.20;;;2.13;;
4577;SDS011;2301;47.354;8.528;2022-09-25T15:02:29;3.30;;;2.70;;
4577;SDS011;2301;47.354;8.528;2022-09-25T15:05:15;2.60;;;2.40;;
4577;SDS011;2301;47.354;8.528;2022-09-25T15:07:43;3.77;;;2.40;;
4577;SDS011;2301;47.354;8.528;2022-09-25T15:13:05;3.93;;;3.53;;
4577;SDS011;2301;47.354;8.528;2022-09-25T15:15:33;2.63;;;2.43;;
4577;SDS011;2301;47.354;8.528;2022-09-25T15:18:03;2.67;;;2.40;;
4577;SDS011;2301;47.354;8.528;2022-09-25T15:20:36;2.50;;;2.30;;
4577;SDS011;2301;47.354;8.528;2022-09-25T15:23:12;5.10;;;2.70;;
4577;SDS011;2301;47.354;8.528;2022-09-25T15:25:44;2.90;;;2.40;;
4577;SDS011;2301;47.354;8.528;2022-09-25T15:28:14;2.37;;;2.17;;
4577;SDS011;2301;47.354;8.528;2022-09-25T15:30:43;5.43;;;2.90;;
4577;SDS011;2301;47.354;8.528;2022-09-25T15:33:20;3.00;;;2.70;;
4577;SDS011;2301;47.354;8.528;2022-09-25T15:35:53;2.87;;;2.57;;
4577;SDS011;2301;47.354;8.528;2022-09-25T15:38:26;2.53;;;2.30;;
4577;SDS011;2301;47.354;8.528;2022-09-25T15:40:54;2.37;;;2.17;;
4577;SDS011;2301;47.354;8.528;2022-09-25T15:43:22;2.50;;;2.30;;
4577;SDS011;2301;47.354;8.528;2022-09-25T15:45:51;3.17;;;2.87;;
4577;SDS011;2301;47.354;8.528;2022-09-25T15:48:24;3.47;;;3.17;;
4577;SDS011;2301;47.354;8.528;2022-09-25T15:50:55;2.80;;;2.57;;
4577;SDS011;2301;47.354;8.528;2022-09-25T15:53:25;3.17;;;2.87;;
4577;SDS011;2301;47.354;8.528;2022-09-25T15:56:06;4.10;;;2.93;;
4577;SDS011;2301;47.354;8.528;2022-09-25T15:58:43;3.47;;;2.57;;
4577;SDS011;2301;47.354;8.528;2022-09-25T16:01:12;3.40;;;3.10;;
4577;SDS011;2301;47.354;8.528;2022-09-25T16:04:00;3.73;;;3.33;;
4577;SDS011;2301;47.354;8.528;2022-09-25T16:06:48;3.90;;;3.00;;
4577;SDS011;2301;47.354;8.528;2022-09-25T16:09:20;3.73;;;3.10;;
4577;SDS011;2301;47.354;8.528;2022-09-25T16:11:53;3.83;;;3.17;;
4577;SDS011;2301;47.354;8.528;2022-09-25T16:14:46;6.93;;;3.27;;
4577;SDS011;2301;47.354;8.528;2022-09-25T16:17:14;3.90;;;3.20;;